Troodos, Cyprus
Current Conditions -  °F | °C
As of 10:50 AM on Monday 22 Dec 2014 (Local Time) from LCRA Reporting Station
Few Clouds Few Clouds  
Wind Chill: 61°   Ceiling: Unl
Heat Index: 61°   Visibility: 6mi
Dew Point: 55°   Wind: 5mph
Humidity: 82%   Direction: 300°WNW
Pressure: 29.97"   Gusts: NA
Location:  34.93°N, 32.87°E
Report Text: LCRA 220750Z 30004KT 9999 FEW025CB 16/13 Q1015 TEMPO 7000 SHRASCT022CB
Loading
Personal Weather Stations






























Interactive Weather Map New forecast layout! Learn more

10-Day Weather Forecast

Advertisements
Track Severe Weather on mobile